createdAt,value
2023-01-23T00:00:46.863Z,2.54
2023-01-23T00:03:16.389Z,2.26
2023-01-23T00:05:42.944Z,2.27
2023-01-23T00:08:09.514Z,2.36
2023-01-23T00:10:38.209Z,2.11
2023-01-23T00:13:05.341Z,2.38
2023-01-23T00:15:33.223Z,2.48
2023-01-23T00:17:59.825Z,2.42
2023-01-23T00:20:26.394Z,2.42
2023-01-23T00:22:52.928Z,2.45
2023-01-23T00:25:19.500Z,2.46
2023-01-23T00:27:46.058Z,2.48
2023-01-23T00:30:13.740Z,2.10
2023-01-23T00:32:40.507Z,2.24
2023-01-23T00:35:07.267Z,2.40
2023-01-23T00:37:33.832Z,2.48
2023-01-23T00:40:00.457Z,2.54
2023-01-23T00:42:27.050Z,2.48
2023-01-23T00:44:53.596Z,2.58
2023-01-23T00:47:20.159Z,2.59
2023-01-23T00:49:48.304Z,2.51
2023-01-23T00:52:14.871Z,2.46
2023-01-23T00:54:41.499Z,2.43
2023-01-23T00:57:08.195Z,2.54
2023-01-23T00:59:34.793Z,2.54
2023-01-23T01:02:01.434Z,2.61
2023-01-23T01:04:28.218Z,2.45
2023-01-23T01:06:54.793Z,2.64
2023-01-23T01:09:22.797Z,2.51
2023-01-23T01:11:49.427Z,2.55
2023-01-23T01:14:16.037Z,2.45
2023-01-23T01:16:45.461Z,2.56
2023-01-23T01:19:16.020Z,2.38
2023-01-23T01:21:42.844Z,2.27
2023-01-23T01:24:11.233Z,2.31
2023-01-23T01:26:37.839Z,2.54
2023-01-23T01:29:04.559Z,2.41
2023-01-23T01:31:34.382Z,2.61
2023-01-23T01:34:01.442Z,2.75
2023-01-23T01:36:28.037Z,2.79
2023-01-23T01:38:54.650Z,2.92
2023-01-23T01:41:21.279Z,2.72
2023-01-23T01:43:47.989Z,2.48
2023-01-23T01:46:26.544Z,2.41
2023-01-23T01:49:25.443Z,2.52
2023-01-23T01:51:56.814Z,2.45
2023-01-23T01:54:34.659Z,2.53
2023-01-23T01:57:26.683Z,2.68
2023-01-23T01:59:55.915Z,2.40
2023-01-23T02:02:35.824Z,2.57
2023-01-23T02:05:15.088Z,2.52
2023-01-23T02:07:47.587Z,2.66
2023-01-23T02:10:16.404Z,2.86
2023-01-23T02:12:51.266Z,2.65
2023-01-23T02:15:18.912Z,2.68
2023-01-23T02:17:47.790Z,2.58
2023-01-23T02:20:23.604Z,2.21
2023-01-23T02:22:53.925Z,2.11
2023-01-23T02:25:45.131Z,2.18
2023-01-23T02:28:16.300Z,2.24
2023-01-23T02:30:47.067Z,2.21
2023-01-23T02:33:20.267Z,2.21
2023-01-23T02:35:47.294Z,2.08
2023-01-23T02:38:14.857Z,2.14
2023-01-23T02:40:42.706Z,2.14
2023-01-23T02:43:16.019Z,2.06
2023-01-23T02:45:49.393Z,2.08
2023-01-23T02:48:16.040Z,2.13
2023-01-23T02:50:44.922Z,2.09
2023-01-23T02:53:11.482Z,2.12
2023-01-23T02:55:42.337Z,2.14
2023-01-23T02:58:29.253Z,2.01
2023-01-23T03:00:55.944Z,1.93
2023-01-23T03:03:23.083Z,2.07
2023-01-23T03:05:50.316Z,2.15
2023-01-23T03:08:17.128Z,2.23
2023-01-23T03:10:44.150Z,2.18
2023-01-23T03:13:12.090Z,2.14
2023-01-23T03:15:39.232Z,2.21
2023-01-23T03:18:06.032Z,2.04
2023-01-23T03:20:39.799Z,1.95
2023-01-23T03:23:06.449Z,1.87
2023-01-23T03:25:33.200Z,2.04
2023-01-23T03:27:59.803Z,1.96
2023-01-23T03:30:26.744Z,2.01
2023-01-23T03:32:53.353Z,1.81
2023-01-23T03:35:20.454Z,1.89
2023-01-23T03:37:49.654Z,2.01
2023-01-23T03:40:41.120Z,2.02
2023-01-23T03:43:09.046Z,2.00
2023-01-23T03:45:41.315Z,1.89
2023-01-23T03:48:08.017Z,2.00
2023-01-23T03:50:35.602Z,1.90
2023-01-23T03:53:04.751Z,1.88
2023-01-23T03:55:31.553Z,1.70
2023-01-23T03:57:58.084Z,1.80
2023-01-23T04:00:28.255Z,1.69
2023-01-23T04:02:59.520Z,1.73
2023-01-23T04:05:26.083Z,1.83
2023-01-23T04:07:52.666Z,1.76
2023-01-23T04:10:19.577Z,1.91
2023-01-23T04:12:51.441Z,1.98
2023-01-23T04:15:18.457Z,2.02
2023-01-23T04:17:45.698Z,2.06
2023-01-23T04:20:13.718Z,2.08
2023-01-23T04:22:42.405Z,2.26
2023-01-23T04:25:10.130Z,2.20
2023-01-23T04:27:36.761Z,2.21
2023-01-23T04:30:04.248Z,2.29
2023-01-23T04:32:31.063Z,2.32
2023-01-23T04:35:02.940Z,2.35
2023-01-23T04:37:30.195Z,2.33
2023-01-23T04:39:56.818Z,2.06
2023-01-23T04:42:23.493Z,2.00
2023-01-23T04:45:10.711Z,2.13
2023-01-23T04:48:02.398Z,2.25
2023-01-23T04:50:29.631Z,2.22
2023-01-23T04:52:58.298Z,2.28
2023-01-23T04:55:24.970Z,2.30
2023-01-23T04:57:51.801Z,2.16
2023-01-23T05:00:24.867Z,2.12
2023-01-23T05:02:52.049Z,2.16
2023-01-23T05:05:21.130Z,1.98
2023-01-23T05:07:51.003Z,1.99
2023-01-23T05:10:17.964Z,1.73
2023-01-23T05:12:44.733Z,2.01
2023-01-23T05:15:11.555Z,1.99
2023-01-23T05:17:40.632Z,1.97
2023-01-23T05:20:08.078Z,2.16
2023-01-23T05:22:36.838Z,1.85
2023-01-23T05:25:03.691Z,1.78
2023-01-23T05:27:30.963Z,2.04
2023-01-23T05:29:59.001Z,2.00
2023-01-23T05:32:29.234Z,1.93
2023-01-23T05:35:08.492Z,1.79
2023-01-23T05:37:37.314Z,1.74
2023-01-23T05:40:08.620Z,1.67
2023-01-23T05:42:53.697Z,1.79
2023-01-23T05:45:43.561Z,1.72
2023-01-23T05:48:18.802Z,1.89
2023-01-23T05:50:45.351Z,1.59
2023-01-23T05:53:12.257Z,1.76
2023-01-23T05:55:39.080Z,1.83
2023-01-23T05:58:06.049Z,1.90
2023-01-23T06:00:35.511Z,2.02
2023-01-23T06:03:34.786Z,2.01
2023-01-23T06:06:15.870Z,1.94
2023-01-23T06:08:43.115Z,1.80
2023-01-23T06:11:09.680Z,2.16
2023-01-23T06:13:36.276Z,2.12
2023-01-23T06:16:03.280Z,2.01
2023-01-23T06:18:29.961Z,1.91
2023-01-23T06:21:00.575Z,1.88
2023-01-23T06:23:28.460Z,1.87
2023-01-23T06:26:02.337Z,2.04
2023-01-23T06:28:29.581Z,2.01
2023-01-23T06:31:00.967Z,2.03
2023-01-23T06:33:38.879Z,2.12
2023-01-23T06:36:09.072Z,2.02
2023-01-23T06:38:36.255Z,2.07
2023-01-23T06:41:12.628Z,1.92
2023-01-23T06:43:43.938Z,1.79
2023-01-23T06:46:16.642Z,1.94
2023-01-23T06:48:43.280Z,2.00
2023-01-23T06:51:09.914Z,1.95
2023-01-23T06:53:38.349Z,1.97
2023-01-23T06:56:07.015Z,2.03
2023-01-23T06:58:38.720Z,2.02
2023-01-23T07:01:15.825Z,2.01
2023-01-23T07:04:11.679Z,2.25
2023-01-23T07:06:39.812Z,2.27
2023-01-23T07:09:06.702Z,2.24
2023-01-23T07:11:33.595Z,2.05
2023-01-23T07:14:00.834Z,2.15
2023-01-23T07:16:28.668Z,1.92
2023-01-23T07:18:58.933Z,2.21
2023-01-23T07:21:25.739Z,2.22
2023-01-23T07:23:52.268Z,2.18
2023-01-23T07:26:18.879Z,2.19
2023-01-23T07:28:45.610Z,2.19
2023-01-23T07:31:13.052Z,2.27
2023-01-23T07:33:40.214Z,2.21
2023-01-23T07:36:07.468Z,2.22
2023-01-23T07:38:34.419Z,2.03
2023-01-23T07:41:01.878Z,1.96
2023-01-23T07:43:28.487Z,1.91
2023-01-23T07:45:58.631Z,1.63
2023-01-23T07:48:25.807Z,1.78
2023-01-23T07:50:52.397Z,1.93
2023-01-23T07:53:18.977Z,1.83
2023-01-23T07:55:45.973Z,2.38
2023-01-23T07:58:12.633Z,2.54
2023-01-23T08:00:39.547Z,2.62
2023-01-23T08:03:06.247Z,2.78
2023-01-23T08:05:32.795Z,2.53
2023-01-23T08:08:14.217Z,2.48
2023-01-23T08:10:43.823Z,2.35
2023-01-23T08:13:10.536Z,2.38
2023-01-23T08:15:38.754Z,2.57
2023-01-23T08:18:05.564Z,2.20
2023-01-23T08:20:32.121Z,2.32
2023-01-23T08:22:59.463Z,2.19
2023-01-23T08:25:26.714Z,2.29
2023-01-23T08:27:53.257Z,2.48
2023-01-23T08:30:20.049Z,2.47
2023-01-23T08:32:47.110Z,2.56
2023-01-23T08:35:13.733Z,2.45
2023-01-23T08:37:41.972Z,2.65
2023-01-23T08:40:09.537Z,2.29
2023-01-23T08:42:36.141Z,2.32
2023-01-23T08:45:02.685Z,2.31
2023-01-23T08:47:29.596Z,2.50
2023-01-23T08:49:56.421Z,2.65
2023-01-23T08:52:22.956Z,2.46
2023-01-23T08:54:49.519Z,2.61
2023-01-23T08:57:16.141Z,2.78
2023-01-23T08:59:44.313Z,2.67
2023-01-23T09:02:14.154Z,2.68
2023-01-23T09:04:40.785Z,2.86
2023-01-23T09:07:07.643Z,2.92
2023-01-23T09:09:34.281Z,2.89
2023-01-23T09:12:00.851Z,2.50
2023-01-23T09:14:27.788Z,3.05
2023-01-23T09:16:54.452Z,2.87
2023-01-23T09:19:21.043Z,2.46
2023-01-23T09:21:47.616Z,2.68
2023-01-23T09:24:14.137Z,2.76
2023-01-23T09:26:40.895Z,2.80
2023-01-23T09:29:14.782Z,2.78
2023-01-23T09:31:42.250Z,2.76
2023-01-23T09:34:08.981Z,2.72
2023-01-23T09:36:42.883Z,3.10
2023-01-23T09:39:10.420Z,3.19
2023-01-23T09:41:39.258Z,3.05
2023-01-23T09:44:11.255Z,2.65
2023-01-23T09:46:46.973Z,2.90
2023-01-23T09:49:25.294Z,2.88
2023-01-23T09:51:59.367Z,2.87
2023-01-23T09:54:37.324Z,2.78
2023-01-23T09:57:19.271Z,2.77
2023-01-23T10:00:00.769Z,3.12
2023-01-23T10:02:28.465Z,2.83
2023-01-23T10:04:58.017Z,3.02
2023-01-23T10:07:40.438Z,2.66
2023-01-23T10:10:20.671Z,3.13
2023-01-23T10:12:59.682Z,3.28
2023-01-23T10:15:47.574Z,2.73
2023-01-23T10:18:28.628Z,2.90
2023-01-23T10:21:18.400Z,2.80
2023-01-23T10:23:49.762Z,3.03
2023-01-23T10:26:21.028Z,3.05
2023-01-23T10:28:47.918Z,3.10
2023-01-23T10:31:29.789Z,3.41
2023-01-23T10:34:05.756Z,3.41
2023-01-23T10:36:47.885Z,3.23
2023-01-23T10:39:26.813Z,2.92
2023-01-23T10:42:01.484Z,3.37
2023-01-23T10:44:28.764Z,3.55
2023-01-23T10:46:59.838Z,3.71
2023-01-23T10:49:35.489Z,3.72
2023-01-23T10:52:02.989Z,3.79
2023-01-23T10:54:32.549Z,3.73
2023-01-23T10:56:59.774Z,3.63
2023-01-23T10:59:30.732Z,3.39
2023-01-23T11:01:58.516Z,3.67
2023-01-23T11:04:26.031Z,3.61
2023-01-23T11:07:10.138Z,2.95
2023-01-23T11:09:50.990Z,3.02
2023-01-23T11:12:29.191Z,2.89
2023-01-23T11:15:22.478Z,3.26
2023-01-23T11:17:50.671Z,3.41
2023-01-23T11:20:40.897Z,2.93
2023-01-23T11:23:13.183Z,2.85
2023-01-23T11:25:40.774Z,3.13
2023-01-23T11:28:23.651Z,3.19
2023-01-23T11:31:00.898Z,3.03
2023-01-23T11:33:40.744Z,3.61
2023-01-23T11:36:17.105Z,3.02
2023-01-23T11:38:52.608Z,2.88
2023-01-23T11:41:19.659Z,3.08
2023-01-23T11:43:46.199Z,3.27
2023-01-23T11:46:12.705Z,3.11
2023-01-23T11:48:48.676Z,3.44
2023-01-23T11:51:32.766Z,3.65
2023-01-23T11:54:47.196Z,3.23
2023-01-23T11:57:43.182Z,3.44
2023-01-23T12:00:31.226Z,3.55
2023-01-23T12:02:58.666Z,3.66
2023-01-23T12:05:48.320Z,3.92
2023-01-23T12:08:37.856Z,4.07
2023-01-23T12:11:16.634Z,4.18
2023-01-23T12:13:53.436Z,4.34
2023-01-23T12:16:49.660Z,4.05
2023-01-23T12:19:34.819Z,3.66
2023-01-23T12:22:14.103Z,3.85
2023-01-23T12:25:04.876Z,3.81
2023-01-23T12:27:44.540Z,4.11
2023-01-23T12:30:38.877Z,3.67
2023-01-23T12:33:24.215Z,3.69
2023-01-23T12:36:01.017Z,3.97
2023-01-23T12:38:32.566Z,4.08
2023-01-23T12:41:21.807Z,3.92
2023-01-23T12:43:55.075Z,4.51
2023-01-23T12:46:40.269Z,4.04
2023-01-23T12:49:24.210Z,4.04
2023-01-23T12:51:56.557Z,3.93
2023-01-23T12:54:32.799Z,4.23
2023-01-23T12:56:59.832Z,4.28
2023-01-23T12:59:37.353Z,3.78
2023-01-23T13:02:30.574Z,4.17
2023-01-23T13:05:09.574Z,3.97
2023-01-23T13:07:53.849Z,4.36
2023-01-23T13:11:09.576Z,4.32
2023-01-23T13:13:36.221Z,4.27
2023-01-23T13:16:09.584Z,3.91
2023-01-23T13:18:57.132Z,4.20
2023-01-23T13:21:43.736Z,4.54
2023-01-23T13:24:43.753Z,4.31
2023-01-23T13:27:29.098Z,4.66
2023-01-23T13:29:55.685Z,4.69
2023-01-23T13:32:28.929Z,4.70
2023-01-23T13:34:55.688Z,4.64
2023-01-23T13:37:32.316Z,4.54
2023-01-23T13:40:19.010Z,4.59
2023-01-23T13:42:45.746Z,4.14
2023-01-23T13:45:34.815Z,4.20
2023-01-23T14:22:13.647Z,4.40
2023-01-23T14:24:43.700Z,4.31
2023-01-23T14:27:21.577Z,3.91
2023-01-23T14:30:01.774Z,3.74
2023-01-23T14:32:29.607Z,3.58
2023-01-23T14:34:56.158Z,4.02
2023-01-23T14:37:22.950Z,3.75
2023-01-23T14:39:53.189Z,3.99
2023-01-23T14:42:27.052Z,3.97
2023-01-23T14:44:53.608Z,4.06
2023-01-23T14:47:28.215Z,4.10
2023-01-23T14:49:55.988Z,3.85
2023-01-23T14:52:23.558Z,4.07
2023-01-23T14:54:54.133Z,3.93
2023-01-23T14:57:22.083Z,3.46
2023-01-23T14:59:48.543Z,3.55
2023-01-23T15:02:35.700Z,3.61
2023-01-23T15:05:25.222Z,3.64
2023-01-23T15:07:56.151Z,3.62
2023-01-23T15:10:29.800Z,3.73
2023-01-23T15:13:00.319Z,3.64
2023-01-23T15:15:26.866Z,3.75
2023-01-23T15:17:54.086Z,3.85
2023-01-23T15:20:32.643Z,4.06
2023-01-23T15:23:14.571Z,3.82
2023-01-23T15:25:41.229Z,3.69
2023-01-23T15:28:26.433Z,3.68
2023-01-23T15:30:53.268Z,3.70
2023-01-23T15:33:27.280Z,3.62
2023-01-23T15:36:00.897Z,3.52
2023-01-23T15:38:27.456Z,3.34
2023-01-23T15:40:53.992Z,3.39
2023-01-23T15:43:20.474Z,3.67
2023-01-23T15:45:47.047Z,3.69
2023-01-23T15:48:13.554Z,3.71
2023-01-23T15:50:39.997Z,3.56
2023-01-23T15:53:12.000Z,3.67
2023-01-23T15:55:38.502Z,3.75
2023-01-23T15:58:04.959Z,3.59
2023-01-23T16:00:33.048Z,3.71
2023-01-23T16:02:59.769Z,3.74
2023-01-23T16:05:27.054Z,3.83
2023-01-23T16:07:54.137Z,3.60
2023-01-23T16:10:22.313Z,3.43
2023-01-23T16:12:50.961Z,3.46
2023-01-23T16:15:17.753Z,3.47
2023-01-23T16:17:46.808Z,3.56
2023-01-23T16:20:14.425Z,3.84
2023-01-23T16:22:41.649Z,3.81
2023-01-23T16:25:15.071Z,3.82
2023-01-23T16:27:41.694Z,3.60
2023-01-23T16:30:15.995Z,3.75
2023-01-23T16:32:43.264Z,3.82
2023-01-23T16:35:10.797Z,3.67
2023-01-23T16:37:37.860Z,3.78
2023-01-23T16:40:04.424Z,3.52
2023-01-23T16:42:30.890Z,3.41
2023-01-23T16:44:57.729Z,3.24
2023-01-23T16:47:24.448Z,3.42
2023-01-23T16:49:52.971Z,3.45
2023-01-23T16:52:20.450Z,3.52
2023-01-23T16:54:46.896Z,3.49
2023-01-23T16:57:19.349Z,3.73
2023-01-23T16:59:45.839Z,3.68
2023-01-23T17:02:26.960Z,3.82
2023-01-23T17:04:53.572Z,3.59
2023-01-23T17:07:20.243Z,3.50
2023-01-23T17:09:47.581Z,3.64
2023-01-23T17:12:17.844Z,3.71
2023-01-23T17:14:46.815Z,3.66
2023-01-23T17:17:16.326Z,3.72
2023-01-23T17:19:43.451Z,3.92
2023-01-23T17:22:18.017Z,4.02
2023-01-23T17:24:44.581Z,3.76
2023-01-23T17:27:11.095Z,3.79
2023-01-23T17:29:37.552Z,3.98
2023-01-23T17:32:04.477Z,4.00
2023-01-23T17:34:45.116Z,3.95
2023-01-23T17:37:20.264Z,4.00
2023-01-23T17:39:47.200Z,3.98
2023-01-23T17:42:13.937Z,3.75
2023-01-23T17:44:40.621Z,3.72
2023-01-23T17:47:11.421Z,3.75
2023-01-23T17:49:40.091Z,3.35
2023-01-23T17:52:06.703Z,3.50
2023-01-23T17:54:33.247Z,3.50
2023-01-23T17:57:00.062Z,3.73
2023-01-23T17:59:26.691Z,3.70
2023-01-23T18:01:53.287Z,3.88
2023-01-23T18:04:21.377Z,3.89
2023-01-23T18:06:48.263Z,3.82
2023-01-23T18:09:14.765Z,3.86
2023-01-23T18:11:52.523Z,3.81
2023-01-23T18:14:31.414Z,3.43
2023-01-23T18:16:58.158Z,3.71
2023-01-23T18:19:25.082Z,3.65
2023-01-23T18:21:52.722Z,3.76
2023-01-23T18:24:26.935Z,3.86
2023-01-23T18:26:59.555Z,3.81
2023-01-23T18:29:47.483Z,3.76
2023-01-23T18:32:19.792Z,3.87
2023-01-23T18:34:58.906Z,3.82
2023-01-23T18:37:47.317Z,3.77
2023-01-23T18:40:29.573Z,3.91
2023-01-23T18:43:14.937Z,3.85
2023-01-23T18:45:41.808Z,3.90
2023-01-23T18:48:24.738Z,3.59
2023-01-23T18:50:59.184Z,3.62
2023-01-23T18:53:35.820Z,3.77
2023-01-23T18:56:16.331Z,3.69
2023-01-23T18:59:11.551Z,3.74
2023-01-23T19:01:45.026Z,3.64
2023-01-23T19:04:15.436Z,3.85
2023-01-23T19:06:42.339Z,3.85
2023-01-23T19:09:19.781Z,3.31
2023-01-23T19:12:09.523Z,3.27
2023-01-23T19:14:40.427Z,3.47
2023-01-23T19:17:19.069Z,3.62
2023-01-23T19:20:00.644Z,3.65
2023-01-23T19:22:39.837Z,3.63
2023-01-23T19:25:07.998Z,3.29
2023-01-23T19:27:34.560Z,3.36
2023-01-23T19:30:01.134Z,3.53
2023-01-23T19:32:27.875Z,3.16
2023-01-23T19:34:56.526Z,3.50
2023-01-23T19:37:25.567Z,3.48
2023-01-23T19:39:52.044Z,3.85
2023-01-23T19:42:18.472Z,3.76
2023-01-23T19:44:45.024Z,3.94
2023-01-23T19:47:11.676Z,3.70
2023-01-23T19:49:38.208Z,3.66
2023-01-23T19:52:04.702Z,4.11
2023-01-23T19:54:31.192Z,3.93
2023-01-23T19:56:57.695Z,3.89
2023-01-23T19:59:25.291Z,3.97
2023-01-23T20:01:52.699Z,4.10
2023-01-23T20:04:22.207Z,4.29
2023-01-23T20:06:51.783Z,4.06
2023-01-23T20:09:18.578Z,3.81
2023-01-23T20:11:45.561Z,3.81
2023-01-23T20:14:12.509Z,3.84
2023-01-23T20:16:40.939Z,3.95
2023-01-23T20:19:07.563Z,3.94
2023-01-23T20:21:34.061Z,3.97
2023-01-23T20:24:00.730Z,4.11
2023-01-23T20:26:27.368Z,4.17
2023-01-23T20:28:53.839Z,4.05
2023-01-23T20:31:20.652Z,4.16
2023-01-23T20:33:47.360Z,4.30
2023-01-23T20:36:14.940Z,4.26
2023-01-23T20:38:42.671Z,4.26
2023-01-23T20:41:13.749Z,4.28
2023-01-23T20:43:42.768Z,4.17
2023-01-23T20:46:09.419Z,4.06
2023-01-23T20:48:36.476Z,3.99
2023-01-23T20:51:03.218Z,4.24
2023-01-23T20:53:29.832Z,4.06
2023-01-23T20:55:57.133Z,3.89
2023-01-23T20:58:42.735Z,4.00
2023-01-23T21:01:09.690Z,4.04
2023-01-23T21:03:36.850Z,4.04
2023-01-23T21:06:03.531Z,3.94
2023-01-23T21:08:29.977Z,4.11
2023-01-23T21:10:56.542Z,4.07
2023-01-23T21:13:23.256Z,4.12
2023-01-23T21:16:00.658Z,4.14
2023-01-23T21:18:27.093Z,4.32
2023-01-23T21:20:53.717Z,4.29
2023-01-23T21:23:20.436Z,4.35
2023-01-23T21:25:47.135Z,4.16
2023-01-23T21:28:13.886Z,4.37
2023-01-23T21:30:40.593Z,4.17
2023-01-23T21:33:07.773Z,4.22
2023-01-23T21:35:34.310Z,4.26
2023-01-23T21:38:01.920Z,4.06
2023-01-23T21:40:28.440Z,4.18
2023-01-23T21:42:54.997Z,4.11
2023-01-23T21:45:21.727Z,4.18
2023-01-23T21:47:48.642Z,4.27
2023-01-23T21:50:17.671Z,4.08
2023-01-23T21:52:44.503Z,3.87
2023-01-23T21:55:10.934Z,3.55
2023-01-23T21:57:37.427Z,3.98
2023-01-23T22:00:23.006Z,3.93
2023-01-23T22:02:49.635Z,4.20
2023-01-23T22:05:16.106Z,4.13
2023-01-23T22:07:42.566Z,4.15
2023-01-23T22:10:09.615Z,4.18
2023-01-23T22:12:36.107Z,4.30
2023-01-23T22:15:02.546Z,4.21
2023-01-23T22:17:28.992Z,4.33
2023-01-23T22:19:55.523Z,4.07
2023-01-23T22:22:21.973Z,4.26
2023-01-23T22:24:48.410Z,4.08
2023-01-23T22:27:14.841Z,4.17
2023-01-23T22:29:42.096Z,4.35
2023-01-23T22:32:08.639Z,4.09
2023-01-23T22:34:35.189Z,4.34
2023-01-23T22:37:01.723Z,4.39
2023-01-23T22:39:31.369Z,4.15
2023-01-23T22:41:58.081Z,4.12
2023-01-23T22:44:25.335Z,4.24
2023-01-23T22:46:52.288Z,4.29
2023-01-23T22:49:18.778Z,4.43
2023-01-23T22:51:45.360Z,4.29
2023-01-23T22:54:11.944Z,4.24
2023-01-23T22:56:38.454Z,4.11
2023-01-23T22:59:04.957Z,4.02
2023-01-23T23:01:31.370Z,4.40
2023-01-23T23:03:58.248Z,4.46
2023-01-23T23:06:24.816Z,4.28
2023-01-23T23:08:51.723Z,4.09
2023-01-23T23:11:19.535Z,4.40
2023-01-23T23:13:46.423Z,4.38
2023-01-23T23:16:17.862Z,4.03
2023-01-23T23:18:45.991Z,3.94
2023-01-23T23:21:13.847Z,4.28
2023-01-23T23:23:40.407Z,4.30
2023-01-23T23:26:08.552Z,4.17
2023-01-23T23:28:34.994Z,4.25
2023-01-23T23:31:01.673Z,4.38
2023-01-23T23:33:28.169Z,4.43
2023-01-23T23:35:54.885Z,4.17
2023-01-23T23:38:21.760Z,4.19
2023-01-23T23:40:58.148Z,4.23
2023-01-23T23:43:24.768Z,4.32
2023-01-23T23:45:54.898Z,4.29
2023-01-23T23:48:21.443Z,4.29
2023-01-23T23:50:47.870Z,4.34
2023-01-23T23:53:14.544Z,4.34
2023-01-23T23:55:41.143Z,4.37
2023-01-23T23:58:07.720Z,4.31
